sensor_id;sensor_type;location;lat;lon;timestamp;temperature;humidity
2621;DHT22;1320;48.128;11.592;2023-09-07T00:00:02;19.80;99.90
2621;DHT22;1320;48.128;11.592;2023-09-07T00:02:30;19.70;99.90
2621;DHT22;1320;48.128;11.592;2023-09-07T00:04:56;19.70;99.90
2621;DHT22;1320;48.128;11.592;2023-09-07T00:07:21;19.70;99.90
2621;DHT22;1320;48.128;11.592;2023-09-07T00:09:47;19.70;99.90
2621;DHT22;1320;48.128;11.592;2023-09-07T00:12:12;19.60;99.90
2621;DHT22;1320;48.128;11.592;2023-09-07T00:14:43;19.60;99.90
2621;DHT22;1320;48.128;11.592;2023-09-07T00:17:09;19.60;99.90
2621;DHT22;1320;48.128;11.592;2023-09-07T00:19:34;19.50;99.90
2621;DHT22;1320;48.128;11.592;2023-09-07T00:22:03;19.50;99.90
2621;DHT22;1320;48.128;11.592;2023-09-07T00:24:29;19.50;99.90
2621;DHT22;1320;48.128;11.592;2023-09-07T00:26:55;19.50;99.90
2621;DHT22;1320;48.128;11.592;2023-09-07T00:29:20;19.40;99.90
2621;DHT22;1320;48.128;11.592;2023-09-07T00:31:47;19.40;99.90
2621;DHT22;1320;48.128;11.592;2023-09-07T00:34:13;19.40;99.90
2621;DHT22;1320;48.128;11.592;2023-09-07T00:36:38;19.40;99.90
2621;DHT22;1320;48.128;11.592;2023-09-07T00:39:04;19.40;99.90
2621;DHT22;1320;48.128;11.592;2023-09-07T00:41:30;19.30;99.90
2621;DHT22;1320;48.128;11.592;2023-09-07T00:43:56;19.30;99.90
2621;DHT22;1320;48.128;11.592;2023-09-07T00:46:21;19.30;99.90
2621;DHT22;1320;48.128;11.592;2023-09-07T00:48:48;19.30;99.90
2621;DHT22;1320;48.128;11.592;2023-09-07T00:51:14;19.30;99.90
2621;DHT22;1320;48.128;11.592;2023-09-07T00:53:40;19.20;99.90
2621;DHT22;1320;48.128;11.592;2023-09-07T00:56:06;19.20;99.90
2621;DHT22;1320;48.128;11.592;2023-09-07T00:58:32;19.20;99.90
2621;DHT22;1320;48.128;11.592;2023-09-07T01:00:59;19.10;99.90
2621;DHT22;1320;48.128;11.592;2023-09-07T01:03:25;19.10;99.90
2621;DHT22;1320;48.128;11.592;2023-09-07T01:08:44;19.10;99.90
2621;DHT22;1320;48.128;11.592;2023-09-07T01:11:18;19.00;99.90
2621;DHT22;1320;48.128;11.592;2023-09-07T01:13:46;19.00;99.90
2621;DHT22;1320;48.128;11.592;2023-09-07T01:16:13;18.90;99.90
2621;DHT22;1320;48.128;11.592;2023-09-07T01:18:42;18.90;99.90
2621;DHT22;1320;48.128;11.592;2023-09-07T01:21:08;18.90;99.90
2621;DHT22;1320;48.128;11.592;2023-09-07T01:23:38;18.90;99.90
2621;DHT22;1320;48.128;11.592;2023-09-07T01:26:07;18.80;99.90
2621;DHT22;1320;48.128;11.592;2023-09-07T01:28:34;18.80;99.90
2621;DHT22;1320;48.128;11.592;2023-09-07T01:30:59;18.80;99.90
2621;DHT22;1320;48.128;11.592;2023-09-07T01:33:26;18.80;99.90
2621;DHT22;1320;48.128;11.592;2023-09-07T01:35:52;18.80;99.90
2621;DHT22;1320;48.128;11.592;2023-09-07T01:38:18;18.70;99.90
2621;DHT22;1320;48.128;11.592;2023-09-07T01:43:10;18.70;99.90
2621;DHT22;1320;48.128;11.592;2023-09-07T01:45:35;18.60;99.90
2621;DHT22;1320;48.128;11.592;2023-09-07T01:48:01;18.60;99.90
2621;DHT22;1320;48.128;11.592;2023-09-07T01:50:27;18.60;99.90
2621;DHT22;1320;48.128;11.592;2023-09-07T01:52:52;18.60;99.90
2621;DHT22;1320;48.128;11.592;2023-09-07T01:55:18;18.50;99.90
2621;DHT22;1320;48.128;11.592;2023-09-07T01:57:44;18.50;99.90
2621;DHT22;1320;48.128;11.592;2023-09-07T02:00:10;18.50;99.90
2621;DHT22;1320;48.128;11.592;2023-09-07T02:02:36;18.50;99.90
2621;DHT22;1320;48.128;11.592;2023-09-07T02:05:03;18.50;99.90
2621;DHT22;1320;48.128;11.592;2023-09-07T02:07:29;18.50;99.90
2621;DHT22;1320;48.128;11.592;2023-09-07T02:09:55;18.40;99.90
2621;DHT22;1320;48.128;11.592;2023-09-07T02:12:20;18.40;99.90
2621;DHT22;1320;48.128;11.592;2023-09-07T02:14:46;18.40;99.90
2621;DHT22;1320;48.128;11.592;2023-09-07T02:17:12;18.40;99.90
2621;DHT22;1320;48.128;11.592;2023-09-07T02:19:43;18.40;99.90
2621;DHT22;1320;48.128;11.592;2023-09-07T02:22:09;18.40;99.90
2621;DHT22;1320;48.128;11.592;2023-09-07T02:24:34;18.40;99.90
2621;DHT22;1320;48.128;11.592;2023-09-07T02:27:00;18.30;99.90
2621;DHT22;1320;48.128;11.592;2023-09-07T02:29:26;18.30;99.90
2621;DHT22;1320;48.128;11.592;2023-09-07T02:31:52;18.30;99.90
2621;DHT22;1320;48.128;11.592;2023-09-07T02:34:18;18.30;99.90
2621;DHT22;1320;48.128;11.592;2023-09-07T02:36:43;18.30;99.90
2621;DHT22;1320;48.128;11.592;2023-09-07T02:39:09;18.20;99.90
2621;DHT22;1320;48.128;11.592;2023-09-07T02:41:36;18.20;99.90
2621;DHT22;1320;48.128;11.592;2023-09-07T02:44:02;18.20;99.90
2621;DHT22;1320;48.128;11.592;2023-09-07T02:46:28;18.20;99.90
2621;DHT22;1320;48.128;11.592;2023-09-07T02:51:23;18.00;99.90
2621;DHT22;1320;48.128;11.592;2023-09-07T02:53:49;17.90;99.90
2621;DHT22;1320;48.128;11.592;2023-09-07T02:56:15;17.80;99.90
2621;DHT22;1320;48.128;11.592;2023-09-07T02:58:41;17.70;99.90
2621;DHT22;1320;48.128;11.592;2023-09-07T03:01:07;17.60;99.90
2621;DHT22;1320;48.128;11.592;2023-09-07T03:03:36;17.50;99.90
2621;DHT22;1320;48.128;11.592;2023-09-07T03:06:12;17.40;99.90
2621;DHT22;1320;48.128;11.592;2023-09-07T03:08:42;17.40;99.90
2621;DHT22;1320;48.128;11.592;2023-09-07T03:11:08;17.40;99.90
2621;DHT22;1320;48.128;11.592;2023-09-07T03:13:35;17.30;99.90
2621;DHT22;1320;48.128;11.592;2023-09-07T03:16:02;17.30;99.90
2621;DHT22;1320;48.128;11.592;2023-09-07T03:18:28;17.30;99.90
2621;DHT22;1320;48.128;11.592;2023-09-07T03:20:55;17.30;99.90
2621;DHT22;1320;48.128;11.592;2023-09-07T03:23:21;17.30;99.90
2621;DHT22;1320;48.128;11.592;2023-09-07T03:25:48;17.30;99.90
2621;DHT22;1320;48.128;11.592;2023-09-07T03:28:13;17.30;99.90
2621;DHT22;1320;48.128;11.592;2023-09-07T03:30:39;17.30;99.90
2621;DHT22;1320;48.128;11.592;2023-09-07T03:33:05;17.30;99.90
2621;DHT22;1320;48.128;11.592;2023-09-07T03:35:31;17.30;99.90
2621;DHT22;1320;48.128;11.592;2023-09-07T03:37:57;17.30;99.90
2621;DHT22;1320;48.128;11.592;2023-09-07T03:40:22;17.30;99.90
2621;DHT22;1320;48.128;11.592;2023-09-07T03:42:48;17.30;99.90
2621;DHT22;1320;48.128;11.592;2023-09-07T03:45:14;17.30;99.90
2621;DHT22;1320;48.128;11.592;2023-09-07T03:47:40;17.30;99.90
2621;DHT22;1320;48.128;11.592;2023-09-07T03:50:06;17.30;99.90
2621;DHT22;1320;48.128;11.592;2023-09-07T03:52:31;17.20;99.90
2621;DHT22;1320;48.128;11.592;2023-09-07T03:54:57;17.30;99.90
2621;DHT22;1320;48.128;11.592;2023-09-07T03:57:24;17.20;99.90
2621;DHT22;1320;48.128;11.592;2023-09-07T03:59:50;17.20;99.90
2621;DHT22;1320;48.128;11.592;2023-09-07T04:02:16;17.20;99.90
2621;DHT22;1320;48.128;11.592;2023-09-07T04:04:49;17.20;99.90
2621;DHT22;1320;48.128;11.592;2023-09-07T04:07:15;17.20;99.90
2621;DHT22;1320;48.128;11.592;2023-09-07T04:09:40;17.20;99.90
2621;DHT22;1320;48.128;11.592;2023-09-07T04:12:06;17.20;99.90
2621;DHT22;1320;48.128;11.592;2023-09-07T04:14:32;17.20;99.90
2621;DHT22;1320;48.128;11.592;2023-09-07T04:16:58;17.10;99.90
2621;DHT22;1320;48.128;11.592;2023-09-07T04:19:24;17.10;99.90
2621;DHT22;1320;48.128;11.592;2023-09-07T04:21:49;17.00;99.90
2621;DHT22;1320;48.128;11.592;2023-09-07T04:24:16;17.00;99.90
2621;DHT22;1320;48.128;11.592;2023-09-07T04:26:42;17.00;99.90
2621;DHT22;1320;48.128;11.592;2023-09-07T04:29:08;17.00;99.90
2621;DHT22;1320;48.128;11.592;2023-09-07T04:31:34;17.00;99.90
2621;DHT22;1320;48.128;11.592;2023-09-07T04:34:00;16.90;99.90
2621;DHT22;1320;48.128;11.592;2023-09-07T04:36:25;16.90;99.90
2621;DHT22;1320;48.128;11.592;2023-09-07T04:38:51;16.90;99.90
2621;DHT22;1320;48.128;11.592;2023-09-07T04:41:17;16.90;99.90
2621;DHT22;1320;48.128;11.592;2023-09-07T04:43:43;16.90;99.90
2621;DHT22;1320;48.128;11.592;2023-09-07T04:46:09;16.90;99.90
2621;DHT22;1320;48.128;11.592;2023-09-07T04:48:35;16.80;99.90
2621;DHT22;1320;48.128;11.592;2023-09-07T04:51:02;16.80;99.90
2621;DHT22;1320;48.128;11.592;2023-09-07T04:53:30;16.80;99.90
2621;DHT22;1320;48.128;11.592;2023-09-07T04:55:56;16.80;99.90
2621;DHT22;1320;48.128;11.592;2023-09-07T04:58:22;16.70;99.90
2621;DHT22;1320;48.128;11.592;2023-09-07T05:00:48;16.70;99.90
2621;DHT22;1320;48.128;11.592;2023-09-07T05:03:13;16.80;99.90
2621;DHT22;1320;48.128;11.592;2023-09-07T05:05:40;16.80;99.90
2621;DHT22;1320;48.128;11.592;2023-09-07T05:08:06;16.80;99.90
2621;DHT22;1320;48.128;11.592;2023-09-07T05:10:35;16.90;99.90
2621;DHT22;1320;48.128;11.592;2023-09-07T05:13:01;16.90;99.90
2621;DHT22;1320;48.128;11.592;2023-09-07T05:15:27;16.90;99.90
2621;DHT22;1320;48.128;11.592;2023-09-07T05:17:54;16.90;99.90
2621;DHT22;1320;48.128;11.592;2023-09-07T05:20:20;16.90;99.90
2621;DHT22;1320;48.128;11.592;2023-09-07T05:22:46;16.90;99.90
2621;DHT22;1320;48.128;11.592;2023-09-07T05:25:11;16.90;99.90
2621;DHT22;1320;48.128;11.592;2023-09-07T05:27:37;17.00;99.90
2621;DHT22;1320;48.128;11.592;2023-09-07T05:30:04;17.00;99.90
2621;DHT22;1320;48.128;11.592;2023-09-07T05:32:30;17.10;99.90
2621;DHT22;1320;48.128;11.592;2023-09-07T05:34:56;17.00;99.90
2621;DHT22;1320;48.128;11.592;2023-09-07T05:37:22;17.10;99.90
2621;DHT22;1320;48.128;11.592;2023-09-07T05:39:48;17.10;99.90
2621;DHT22;1320;48.128;11.592;2023-09-07T05:42:14;17.00;99.90
2621;DHT22;1320;48.128;11.592;2023-09-07T05:44:40;17.00;99.90
2621;DHT22;1320;48.128;11.592;2023-09-07T05:47:06;17.10;99.90
2621;DHT22;1320;48.128;11.592;2023-09-07T05:49:31;17.10;99.90
2621;DHT22;1320;48.128;11.592;2023-09-07T05:51:57;17.00;99.90
2621;DHT22;1320;48.128;11.592;2023-09-07T05:54:23;17.00;99.90
2621;DHT22;1320;48.128;11.592;2023-09-07T05:56:48;17.00;99.90
2621;DHT22;1320;48.128;11.592;2023-09-07T05:59:14;17.00;99.90
2621;DHT22;1320;48.128;11.592;2023-09-07T06:01:41;17.00;99.90
2621;DHT22;1320;48.128;11.592;2023-09-07T06:04:07;17.10;99.90
2621;DHT22;1320;48.128;11.592;2023-09-07T06:06:33;17.10;99.90
2621;DHT22;1320;48.128;11.592;2023-09-07T06:08:59;17.20;99.90
2621;DHT22;1320;48.128;11.592;2023-09-07T06:11:25;17.20;99.90
2621;DHT22;1320;48.128;11.592;2023-09-07T06:13:51;17.30;99.90
2621;DHT22;1320;48.128;11.592;2023-09-07T06:16:17;17.30;99.90
2621;DHT22;1320;48.128;11.592;2023-09-07T06:18:43;17.40;99.90
2621;DHT22;1320;48.128;11.592;2023-09-07T06:21:08;17.50;99.90
2621;DHT22;1320;48.128;11.592;2023-09-07T06:23:34;17.50;99.90
2621;DHT22;1320;48.128;11.592;2023-09-07T06:26:00;17.60;99.90
2621;DHT22;1320;48.128;11.592;2023-09-07T06:28:26;17.70;99.90
2621;DHT22;1320;48.128;11.592;2023-09-07T06:30:52;17.70;99.90
2621;DHT22;1320;48.128;11.592;2023-09-07T06:33:18;17.80;99.90
2621;DHT22;1320;48.128;11.592;2023-09-07T06:35:43;17.80;99.90
2621;DHT22;1320;48.128;11.592;2023-09-07T06:38:09;17.90;99.90
2621;DHT22;1320;48.128;11.592;2023-09-07T06:40:35;18.00;99.90
2621;DHT22;1320;48.128;11.592;2023-09-07T06:43:00;18.10;99.90
2621;DHT22;1320;48.128;11.592;2023-09-07T06:45:36;18.30;99.90
2621;DHT22;1320;48.128;11.592;2023-09-07T06:48:03;18.40;99.90
2621;DHT22;1320;48.128;11.592;2023-09-07T06:50:28;18.50;99.90
2621;DHT22;1320;48.128;11.592;2023-09-07T06:52:54;18.60;99.90
2621;DHT22;1320;48.128;11.592;2023-09-07T06:55:20;18.80;99.90
2621;DHT22;1320;48.128;11.592;2023-09-07T06:57:46;18.90;99.90
2621;DHT22;1320;48.128;11.592;2023-09-07T07:00:12;18.90;99.90
2621;DHT22;1320;48.128;11.592;2023-09-07T07:02:38;19.00;99.90
2621;DHT22;1320;48.128;11.592;2023-09-07T07:05:04;19.20;99.90
2621;DHT22;1320;48.128;11.592;2023-09-07T07:07:30;19.20;99.90
2621;DHT22;1320;48.128;11.592;2023-09-07T07:09:56;19.30;99.90
2621;DHT22;1320;48.128;11.592;2023-09-07T07:12:22;19.50;99.90
2621;DHT22;1320;48.128;11.592;2023-09-07T07:14:47;19.50;99.90
2621;DHT22;1320;48.128;11.592;2023-09-07T07:17:13;19.70;99.90
2621;DHT22;1320;48.128;11.592;2023-09-07T07:19:39;19.80;99.90
2621;DHT22;1320;48.128;11.592;2023-09-07T07:22:04;19.80;99.90
2621;DHT22;1320;48.128;11.592;2023-09-07T07:24:30;19.90;99.90
2621;DHT22;1320;48.128;11.592;2023-09-07T07:26:56;20.00;99.90
2621;DHT22;1320;48.128;11.592;2023-09-07T07:29:21;20.10;99.90
2621;DHT22;1320;48.128;11.592;2023-09-07T07:31:47;20.30;99.90
2621;DHT22;1320;48.128;11.592;2023-09-07T07:34:13;20.40;99.90
2621;DHT22;1320;48.128;11.592;2023-09-07T07:36:38;20.50;99.90
2621;DHT22;1320;48.128;11.592;2023-09-07T07:39:05;20.70;99.90
2621;DHT22;1320;48.128;11.592;2023-09-07T07:41:32;20.80;99.90
2621;DHT22;1320;48.128;11.592;2023-09-07T07:43:58;21.00;99.90
2621;DHT22;1320;48.128;11.592;2023-09-07T07:46:24;21.20;99.90
2621;DHT22;1320;48.128;11.592;2023-09-07T07:48:49;21.40;99.90
2621;DHT22;1320;48.128;11.592;2023-09-07T07:51:15;21.70;99.90
2621;DHT22;1320;48.128;11.592;2023-09-07T07:53:41;22.20;99.90
2621;DHT22;1320;48.128;11.592;2023-09-07T07:56:15;22.70;99.90
2621;DHT22;1320;48.128;11.592;2023-09-07T07:58:41;23.30;99.90
2621;DHT22;1320;48.128;11.592;2023-09-07T08:01:16;23.80;99.90
2621;DHT22;1320;48.128;11.592;2023-09-07T08:03:42;24.10;99.90
2621;DHT22;1320;48.128;11.592;2023-09-07T08:06:09;24.40;99.90
2621;DHT22;1320;48.128;11.592;2023-09-07T08:08:34;24.70;99.90
2621;DHT22;1320;48.128;11.592;2023-09-07T08:11:00;25.10;99.90
2621;DHT22;1320;48.128;11.592;2023-09-07T08:13:34;25.50;99.90
2621;DHT22;1320;48.128;11.592;2023-09-07T08:16:01;26.20;99.90
2621;DHT22;1320;48.128;11.592;2023-09-07T08:18:27;26.70;99.90
2621;DHT22;1320;48.128;11.592;2023-09-07T08:20:53;27.10;99.90
2621;DHT22;1320;48.128;11.592;2023-09-07T08:23:21;27.50;99.90
2621;DHT22;1320;48.128;11.592;2023-09-07T08:25:47;27.70;99.90
2621;DHT22;1320;48.128;11.592;2023-09-07T08:28:13;28.10;99.90
2621;DHT22;1320;48.128;11.592;2023-09-07T08:30:39;28.30;99.90
2621;DHT22;1320;48.128;11.592;2023-09-07T08:33:05;28.30;99.70
2621;DHT22;1320;48.128;11.592;2023-09-07T08:35:33;28.50;99.20
2621;DHT22;1320;48.128;11.592;2023-09-07T08:38:01;28.70;98.90
2621;DHT22;1320;48.128;11.592;2023-09-07T08:40:30;29.00;98.40
2621;DHT22;1320;48.128;11.592;2023-09-07T08:43:00;29.10;98.00
2621;DHT22;1320;48.128;11.592;2023-09-07T08:45:30;29.20;97.80
2621;DHT22;1320;48.128;11.592;2023-09-07T08:47:59;29.30;97.60
2621;DHT22;1320;48.128;11.592;2023-09-07T08:50:25;29.60;96.90
2621;DHT22;1320;48.128;11.592;2023-09-07T08:52:52;29.80;96.60
2621;DHT22;1320;48.128;11.592;2023-09-07T08:55:19;29.90;97.60
2621;DHT22;1320;48.128;11.592;2023-09-07T09:00:12;30.40;95.00
2621;DHT22;1320;48.128;11.592;2023-09-07T09:02:42;30.80;94.80
2621;DHT22;1320;48.128;11.592;2023-09-07T09:05:12;31.00;94.00
2621;DHT22;1320;48.128;11.592;2023-09-07T09:07:39;31.10;93.80
2621;DHT22;1320;48.128;11.592;2023-09-07T09:10:08;31.10;93.90
2621;DHT22;1320;48.128;11.592;2023-09-07T09:12:34;31.20;93.80
2621;DHT22;1320;48.128;11.592;2023-09-07T09:15:01;31.30;93.20
2621;DHT22;1320;48.128;11.592;2023-09-07T09:17:29;31.20;93.50
2621;DHT22;1320;48.128;11.592;2023-09-07T09:19:55;31.20;93.00
2621;DHT22;1320;48.128;11.592;2023-09-07T09:22:20;31.10;93.40
2621;DHT22;1320;48.128;11.592;2023-09-07T09:24:49;31.10;93.50
2621;DHT22;1320;48.128;11.592;2023-09-07T09:27:15;31.10;93.10
2621;DHT22;1320;48.128;11.592;2023-09-07T09:29:41;31.00;93.30
2621;DHT22;1320;48.128;11.592;2023-09-07T09:32:07;31.00;93.40
2621;DHT22;1320;48.128;11.592;2023-09-07T09:34:35;30.90;93.50
2621;DHT22;1320;48.128;11.592;2023-09-07T09:37:01;30.80;93.50
2621;DHT22;1320;48.128;11.592;2023-09-07T09:39:29;30.80;93.60
2621;DHT22;1320;48.128;11.592;2023-09-07T09:41:56;30.90;93.60
2621;DHT22;1320;48.128;11.592;2023-09-07T09:44:23;30.90;93.60
2621;DHT22;1320;48.128;11.592;2023-09-07T09:46:53;31.00;93.20
2621;DHT22;1320;48.128;11.592;2023-09-07T09:49:22;31.00;93.40
2621;DHT22;1320;48.128;11.592;2023-09-07T09:51:49;31.00;93.20
2621;DHT22;1320;48.128;11.592;2023-09-07T09:54:20;31.00;93.30
2621;DHT22;1320;48.128;11.592;2023-09-07T09:56:45;30.90;93.30
2621;DHT22;1320;48.128;11.592;2023-09-07T09:59:14;30.90;93.10
2621;DHT22;1320;48.128;11.592;2023-09-07T10:01:45;31.00;93.30
2621;DHT22;1320;48.128;11.592;2023-09-07T10:04:17;31.00;93.70
2621;DHT22;1320;48.128;11.592;2023-09-07T10:06:59;31.10;93.30
2621;DHT22;1320;48.128;11.592;2023-09-07T10:09:33;31.30;92.80
2621;DHT22;1320;48.128;11.592;2023-09-07T10:11:59;31.40;92.60
2621;DHT22;1320;48.128;11.592;2023-09-07T10:14:26;31.60;92.70
2621;DHT22;1320;48.128;11.592;2023-09-07T10:17:02;31.70;92.40
2621;DHT22;1320;48.128;11.592;2023-09-07T10:19:29;31.80;92.30
2621;DHT22;1320;48.128;11.592;2023-09-07T10:21:55;31.90;92.00
2621;DHT22;1320;48.128;11.592;2023-09-07T10:24:29;31.90;92.30
2621;DHT22;1320;48.128;11.592;2023-09-07T10:27:00;32.10;91.40
2621;DHT22;1320;48.128;11.592;2023-09-07T10:29:26;32.30;91.50
2621;DHT22;1320;48.128;11.592;2023-09-07T10:31:53;32.30;91.10
2621;DHT22;1320;48.128;11.592;2023-09-07T10:34:19;32.30;91.20
2621;DHT22;1320;48.128;11.592;2023-09-07T10:36:46;32.20;91.40
2621;DHT22;1320;48.128;11.592;2023-09-07T10:39:12;32.20;91.00
2621;DHT22;1320;48.128;11.592;2023-09-07T10:41:45;32.00;91.20
2621;DHT22;1320;48.128;11.592;2023-09-07T10:44:11;32.00;91.20
2621;DHT22;1320;48.128;11.592;2023-09-07T10:46:38;31.90;90.90
2621;DHT22;1320;48.128;11.592;2023-09-07T10:49:11;32.00;91.10
2621;DHT22;1320;48.128;11.592;2023-09-07T10:51:44;32.10;91.10
2621;DHT22;1320;48.128;11.592;2023-09-07T10:54:24;32.10;90.90
2621;DHT22;1320;48.128;11.592;2023-09-07T10:56:50;32.10;91.00
2621;DHT22;1320;48.128;11.592;2023-09-07T10:59:17;32.00;90.90
2621;DHT22;1320;48.128;11.592;2023-09-07T11:01:45;31.80;91.10
2621;DHT22;1320;48.128;11.592;2023-09-07T11:04:12;31.80;91.00
2621;DHT22;1320;48.128;11.592;2023-09-07T11:06:40;31.70;91.10
2621;DHT22;1320;48.128;11.592;2023-09-07T11:09:05;31.60;91.30
2621;DHT22;1320;48.128;11.592;2023-09-07T11:11:36;31.50;91.30
2621;DHT22;1320;48.128;11.592;2023-09-07T11:14:05;31.40;91.60
2621;DHT22;1320;48.128;11.592;2023-09-07T11:16:33;31.30;91.70
2621;DHT22;1320;48.128;11.592;2023-09-07T11:19:03;31.20;91.80
2621;DHT22;1320;48.128;11.592;2023-09-07T11:21:30;31.30;91.90
2621;DHT22;1320;48.128;11.592;2023-09-07T11:23:57;31.30;91.70
2621;DHT22;1320;48.128;11.592;2023-09-07T11:26:22;31.30;91.90
2621;DHT22;1320;48.128;11.592;2023-09-07T11:28:48;31.30;92.20
2621;DHT22;1320;48.128;11.592;2023-09-07T11:31:18;31.20;92.40
2621;DHT22;1320;48.128;11.592;2023-09-07T11:33:44;31.20;92.50
2621;DHT22;1320;48.128;11.592;2023-09-07T11:36:09;31.10;92.80
2621;DHT22;1320;48.128;11.592;2023-09-07T11:38:36;31.20;92.80
2621;DHT22;1320;48.128;11.592;2023-09-07T11:41:03;31.30;92.80
2621;DHT22;1320;48.128;11.592;2023-09-07T11:43:29;31.30;92.30
2621;DHT22;1320;48.128;11.592;2023-09-07T11:45:55;31.30;92.20
2621;DHT22;1320;48.128;11.592;2023-09-07T11:48:20;31.40;92.50
2621;DHT22;1320;48.128;11.592;2023-09-07T11:50:46;31.40;92.40
2621;DHT22;1320;48.128;11.592;2023-09-07T11:53:12;31.40;92.50
2621;DHT22;1320;48.128;11.592;2023-09-07T11:55:37;31.50;92.40
2621;DHT22;1320;48.128;11.592;2023-09-07T11:58:05;31.50;92.10
2621;DHT22;1320;48.128;11.592;2023-09-07T12:00:30;31.60;91.90
2621;DHT22;1320;48.128;11.592;2023-09-07T12:02:57;31.60;92.10
2621;DHT22;1320;48.128;11.592;2023-09-07T12:05:23;31.50;92.20
2621;DHT22;1320;48.128;11.592;2023-09-07T12:07:48;31.50;92.10
2621;DHT22;1320;48.128;11.592;2023-09-07T12:10:14;31.60;91.90
2621;DHT22;1320;48.128;11.592;2023-09-07T12:12:40;31.70;91.80
2621;DHT22;1320;48.128;11.592;2023-09-07T12:15:06;31.80;91.40
2621;DHT22;1320;48.128;11.592;2023-09-07T12:17:33;31.80;91.30
2621;DHT22;1320;48.128;11.592;2023-09-07T12:19:59;31.80;91.60
2621;DHT22;1320;48.128;11.592;2023-09-07T12:22:29;31.80;91.60
2621;DHT22;1320;48.128;11.592;2023-09-07T12:24:55;31.90;91.70
2621;DHT22;1320;48.128;11.592;2023-09-07T12:27:21;32.00;91.50
2621;DHT22;1320;48.128;11.592;2023-09-07T12:29:47;32.00;91.50
2621;DHT22;1320;48.128;11.592;2023-09-07T12:32:12;32.00;91.40
2621;DHT22;1320;48.128;11.592;2023-09-07T12:34:38;31.90;91.30
2621;DHT22;1320;48.128;11.592;2023-09-07T12:37:04;32.00;91.40
2621;DHT22;1320;48.128;11.592;2023-09-07T12:39:30;32.00;91.50
2621;DHT22;1320;48.128;11.592;2023-09-07T12:41:56;32.00;91.30
2621;DHT22;1320;48.128;11.592;2023-09-07T12:44:22;32.10;91.50
2621;DHT22;1320;48.128;11.592;2023-09-07T12:49:14;32.30;90.80
2621;DHT22;1320;48.128;11.592;2023-09-07T12:51:44;32.50;90.80
2621;DHT22;1320;48.128;11.592;2023-09-07T12:54:10;32.60;90.40
2621;DHT22;1320;48.128;11.592;2023-09-07T12:56:36;32.60;90.40
2621;DHT22;1320;48.128;11.592;2023-09-07T12:59:01;32.50;90.00
2621;DHT22;1320;48.128;11.592;2023-09-07T13:01:29;32.50;90.00
2621;DHT22;1320;48.128;11.592;2023-09-07T13:03:55;32.40;90.00
2621;DHT22;1320;48.128;11.592;2023-09-07T13:06:20;32.40;90.00
2621;DHT22;1320;48.128;11.592;2023-09-07T13:08:46;32.50;89.80
2621;DHT22;1320;48.128;11.592;2023-09-07T13:11:12;32.50;89.70
2621;DHT22;1320;48.128;11.592;2023-09-07T13:13:38;32.50;89.50
2621;DHT22;1320;48.128;11.592;2023-09-07T13:16:04;32.50;89.30
2621;DHT22;1320;48.128;11.592;2023-09-07T13:18:29;32.50;88.80
2621;DHT22;1320;48.128;11.592;2023-09-07T13:20:56;32.50;88.20
2621;DHT22;1320;48.128;11.592;2023-09-07T13:23:30;32.60;87.60
2621;DHT22;1320;48.128;11.592;2023-09-07T13:25:57;32.70;87.40
2621;DHT22;1320;48.128;11.592;2023-09-07T13:28:23;32.80;86.80
2621;DHT22;1320;48.128;11.592;2023-09-07T13:30:52;32.80;86.60
2621;DHT22;1320;48.128;11.592;2023-09-07T13:35:45;33.10;84.80
2621;DHT22;1320;48.128;11.592;2023-09-07T13:38:12;33.20;85.20
2621;DHT22;1320;48.128;11.592;2023-09-07T13:40:38;33.30;84.00
2621;DHT22;1320;48.128;11.592;2023-09-07T13:43:03;33.30;83.80
2621;DHT22;1320;48.128;11.592;2023-09-07T13:45:29;33.50;83.30
2621;DHT22;1320;48.128;11.592;2023-09-07T13:47:56;33.40;83.40
2621;DHT22;1320;48.128;11.592;2023-09-07T13:50:22;33.50;82.60
2621;DHT22;1320;48.128;11.592;2023-09-07T13:52:48;33.50;82.10
2621;DHT22;1320;48.128;11.592;2023-09-07T13:55:14;33.50;81.50
2621;DHT22;1320;48.128;11.592;2023-09-07T13:57:40;33.60;81.20
2621;DHT22;1320;48.128;11.592;2023-09-07T14:00:06;33.60;81.30
2621;DHT22;1320;48.128;11.592;2023-09-07T14:02:32;33.70;80.60
2621;DHT22;1320;48.128;11.592;2023-09-07T14:05:00;33.90;79.70
2621;DHT22;1320;48.128;11.592;2023-09-07T14:07:25;33.90;78.80
2621;DHT22;1320;48.128;11.592;2023-09-07T14:09:54;33.90;79.00
2621;DHT22;1320;48.128;11.592;2023-09-07T14:12:20;33.90;79.10
2621;DHT22;1320;48.128;11.592;2023-09-07T14:14:47;33.80;78.50
2621;DHT22;1320;48.128;11.592;2023-09-07T14:17:13;33.90;78.80
2621;DHT22;1320;48.128;11.592;2023-09-07T14:19:39;34.00;78.40
2621;DHT22;1320;48.128;11.592;2023-09-07T14:22:04;34.00;78.50
2621;DHT22;1320;48.128;11.592;2023-09-07T14:24:30;34.10;77.60
2621;DHT22;1320;48.128;11.592;2023-09-07T14:26:55;34.10;77.00
2621;DHT22;1320;48.128;11.592;2023-09-07T14:29:21;34.10;77.20
2621;DHT22;1320;48.128;11.592;2023-09-07T14:31:47;34.00;77.60
2621;DHT22;1320;48.128;11.592;2023-09-07T14:34:13;34.10;77.00
2621;DHT22;1320;48.128;11.592;2023-09-07T14:36:38;34.00;76.30
2621;DHT22;1320;48.128;11.592;2023-09-07T14:39:06;34.10;76.20
2621;DHT22;1320;48.128;11.592;2023-09-07T14:41:36;34.20;75.90
2621;DHT22;1320;48.128;11.592;2023-09-07T14:44:02;34.20;76.00
2621;DHT22;1320;48.128;11.592;2023-09-07T14:46:28;34.40;76.10
2621;DHT22;1320;48.128;11.592;2023-09-07T14:48:53;34.40;76.80
2621;DHT22;1320;48.128;11.592;2023-09-07T14:51:19;34.60;76.00
2621;DHT22;1320;48.128;11.592;2023-09-07T14:53:45;34.70;75.10
2621;DHT22;1320;48.128;11.592;2023-09-07T14:56:12;34.80;74.50
2621;DHT22;1320;48.128;11.592;2023-09-07T14:58:38;34.80;74.00
2621;DHT22;1320;48.128;11.592;2023-09-07T15:01:04;34.90;74.00
2621;DHT22;1320;48.128;11.592;2023-09-07T15:03:30;35.00;73.20
2621;DHT22;1320;48.128;11.592;2023-09-07T15:05:56;35.20;72.90
2621;DHT22;1320;48.128;11.592;2023-09-07T15:08:22;35.30;71.80
2621;DHT22;1320;48.128;11.592;2023-09-07T15:10:48;35.30;71.90
2621;DHT22;1320;48.128;11.592;2023-09-07T15:13:14;35.40;71.70
2621;DHT22;1320;48.128;11.592;2023-09-07T15:15:40;35.40;71.40
2621;DHT22;1320;48.128;11.592;2023-09-07T15:18:06;35.50;71.70
2621;DHT22;1320;48.128;11.592;2023-09-07T15:20:33;35.70;71.90
2621;DHT22;1320;48.128;11.592;2023-09-07T15:22:58;35.80;70.90
2621;DHT22;1320;48.128;11.592;2023-09-07T15:25:24;36.00;70.80
2621;DHT22;1320;48.128;11.592;2023-09-07T15:27:50;36.00;69.60
2621;DHT22;1320;48.128;11.592;2023-09-07T15:30:16;36.20;69.30
2621;DHT22;1320;48.128;11.592;2023-09-07T15:32:42;36.30;69.30
2621;DHT22;1320;48.128;11.592;2023-09-07T15:35:08;36.40;68.30
2621;DHT22;1320;48.128;11.592;2023-09-07T15:37:33;36.70;66.80
2621;DHT22;1320;48.128;11.592;2023-09-07T15:39:59;36.70;66.50
2621;DHT22;1320;48.128;11.592;2023-09-07T15:42:25;36.80;66.00
2621;DHT22;1320;48.128;11.592;2023-09-07T15:44:51;37.00;65.80
2621;DHT22;1320;48.128;11.592;2023-09-07T15:47:17;36.80;65.20
2621;DHT22;1320;48.128;11.592;2023-09-07T15:49:43;36.70;65.50
2621;DHT22;1320;48.128;11.592;2023-09-07T15:52:09;36.80;64.50
2621;DHT22;1320;48.128;11.592;2023-09-07T15:54:36;36.80;64.50